sensor_id;sensor_type;location;lat;lon;timestamp;temperature;humidity
51567;DHT22;37657;53.182;5.638;2023-09-12T00:00:42;19.50;99.90
51567;DHT22;37657;53.182;5.638;2023-09-12T00:03:08;19.50;99.90
51567;DHT22;37657;53.182;5.638;2023-09-12T00:05:34;19.30;99.90
51567;DHT22;37657;53.182;5.638;2023-09-12T00:08:00;19.50;99.90
51567;DHT22;37657;53.182;5.638;2023-09-12T00:10:25;19.40;99.90
51567;DHT22;37657;53.182;5.638;2023-09-12T00:12:51;19.40;99.90
51567;DHT22;37657;53.182;5.638;2023-09-12T00:15:16;19.30;99.90
51567;DHT22;37657;53.182;5.638;2023-09-12T00:17:43;19.10;99.90
51567;DHT22;37657;53.182;5.638;2023-09-12T00:20:09;19.10;99.90
51567;DHT22;37657;53.182;5.638;2023-09-12T00:22:35;19.10;99.90
51567;DHT22;37657;53.182;5.638;2023-09-12T00:25:00;19.10;99.90
51567;DHT22;37657;53.182;5.638;2023-09-12T00:27:26;19.10;99.90
51567;DHT22;37657;53.182;5.638;2023-09-12T00:29:51;19.20;99.90
51567;DHT22;37657;53.182;5.638;2023-09-12T00:32:17;19.00;99.90
51567;DHT22;37657;53.182;5.638;2023-09-12T00:34:42;18.90;99.90
51567;DHT22;37657;53.182;5.638;2023-09-12T00:37:08;18.90;99.90
51567;DHT22;37657;53.182;5.638;2023-09-12T00:39:33;19.00;99.90
51567;DHT22;37657;53.182;5.638;2023-09-12T00:41:59;18.90;99.90
51567;DHT22;37657;53.182;5.638;2023-09-12T00:44:24;19.00;99.90
51567;DHT22;37657;53.182;5.638;2023-09-12T00:46:51;18.80;99.90
51567;DHT22;37657;53.182;5.638;2023-09-12T00:49:18;19.10;99.90
51567;DHT22;37657;53.182;5.638;2023-09-12T00:51:45;18.90;99.90
51567;DHT22;37657;53.182;5.638;2023-09-12T00:54:11;18.90;99.90
51567;DHT22;37657;53.182;5.638;2023-09-12T00:56:37;19.00;99.90
51567;DHT22;37657;53.182;5.638;2023-09-12T00:59:04;19.00;99.90
51567;DHT22;37657;53.182;5.638;2023-09-12T01:01:31;18.80;99.90
51567;DHT22;37657;53.182;5.638;2023-09-12T01:03:57;19.10;99.90
51567;DHT22;37657;53.182;5.638;2023-09-12T01:06:24;18.70;99.90
51567;DHT22;37657;53.182;5.638;2023-09-12T01:08:52;18.60;99.90
51567;DHT22;37657;53.182;5.638;2023-09-12T01:11:18;18.60;99.90
51567;DHT22;37657;53.182;5.638;2023-09-12T01:13:44;18.80;99.90
51567;DHT22;37657;53.182;5.638;2023-09-12T01:16:10;18.80;99.90
51567;DHT22;37657;53.182;5.638;2023-09-12T01:18:36;18.60;99.90
51567;DHT22;37657;53.182;5.638;2023-09-12T01:27:22;18.50;99.90
51567;DHT22;37657;53.182;5.638;2023-09-12T01:29:59;18.60;99.90
51567;DHT22;37657;53.182;5.638;2023-09-12T01:32:26;18.50;99.90
51567;DHT22;37657;53.182;5.638;2023-09-12T01:34:52;18.70;99.90
51567;DHT22;37657;53.182;5.638;2023-09-12T01:37:17;18.70;99.90
51567;DHT22;37657;53.182;5.638;2023-09-12T01:39:43;18.20;99.90
51567;DHT22;37657;53.182;5.638;2023-09-12T01:42:14;18.40;99.90
51567;DHT22;37657;53.182;5.638;2023-09-12T01:44:43;18.40;99.90
51567;DHT22;37657;53.182;5.638;2023-09-12T01:47:09;18.60;99.90
51567;DHT22;37657;53.182;5.638;2023-09-12T01:49:38;18.40;99.90
51567;DHT22;37657;53.182;5.638;2023-09-12T01:52:05;18.50;99.90
51567;DHT22;37657;53.182;5.638;2023-09-12T01:54:32;18.50;99.90
51567;DHT22;37657;53.182;5.638;2023-09-12T01:56:59;18.20;99.90
51567;DHT22;37657;53.182;5.638;2023-09-12T01:59:25;18.40;99.90
51567;DHT22;37657;53.182;5.638;2023-09-12T02:01:51;18.10;99.90
51567;DHT22;37657;53.182;5.638;2023-09-12T02:04:16;18.10;99.90
51567;DHT22;37657;53.182;5.638;2023-09-12T02:06:42;17.90;99.90
51567;DHT22;37657;53.182;5.638;2023-09-12T02:09:07;17.90;99.90
51567;DHT22;37657;53.182;5.638;2023-09-12T02:11:33;17.90;99.90
51567;DHT22;37657;53.182;5.638;2023-09-12T02:13:58;17.70;99.90
51567;DHT22;37657;53.182;5.638;2023-09-12T02:16:24;17.60;99.90
51567;DHT22;37657;53.182;5.638;2023-09-12T02:18:50;17.60;99.90
51567;DHT22;37657;53.182;5.638;2023-09-12T02:21:15;17.40;99.90
51567;DHT22;37657;53.182;5.638;2023-09-12T02:23:41;17.50;99.90
51567;DHT22;37657;53.182;5.638;2023-09-12T02:26:07;17.20;99.90
51567;DHT22;37657;53.182;5.638;2023-09-12T02:28:33;17.20;99.90
51567;DHT22;37657;53.182;5.638;2023-09-12T02:30:58;17.30;99.90
51567;DHT22;37657;53.182;5.638;2023-09-12T02:33:24;17.20;99.90
51567;DHT22;37657;53.182;5.638;2023-09-12T02:35:49;17.60;99.90
51567;DHT22;37657;53.182;5.638;2023-09-12T02:38:15;17.60;99.90
51567;DHT22;37657;53.182;5.638;2023-09-12T02:40:41;17.40;99.90
51567;DHT22;37657;53.182;5.638;2023-09-12T02:43:07;17.50;99.90
51567;DHT22;37657;53.182;5.638;2023-09-12T02:45:32;17.50;99.90
51567;DHT22;37657;53.182;5.638;2023-09-12T02:47:58;17.60;99.90
51567;DHT22;37657;53.182;5.638;2023-09-12T02:50:23;17.40;99.90
51567;DHT22;37657;53.182;5.638;2023-09-12T02:52:49;17.70;99.90
51567;DHT22;37657;53.182;5.638;2023-09-12T02:55:15;17.30;99.90
51567;DHT22;37657;53.182;5.638;2023-09-12T02:57:40;17.50;99.90
51567;DHT22;37657;53.182;5.638;2023-09-12T03:00:07;17.50;99.90
51567;DHT22;37657;53.182;5.638;2023-09-12T03:02:34;17.50;99.90
51567;DHT22;37657;53.182;5.638;2023-09-12T03:05:00;17.30;99.90
51567;DHT22;37657;53.182;5.638;2023-09-12T03:07:27;17.50;99.90
51567;DHT22;37657;53.182;5.638;2023-09-12T03:09:52;17.20;99.90
51567;DHT22;37657;53.182;5.638;2023-09-12T03:12:18;17.20;99.90
51567;DHT22;37657;53.182;5.638;2023-09-12T03:14:43;17.10;99.90
51567;DHT22;37657;53.182;5.638;2023-09-12T03:17:09;17.20;99.90
51567;DHT22;37657;53.182;5.638;2023-09-12T03:19:34;17.00;99.90
51567;DHT22;37657;53.182;5.638;2023-09-12T03:22:00;17.30;99.90
51567;DHT22;37657;53.182;5.638;2023-09-12T03:24:26;17.20;99.90
51567;DHT22;37657;53.182;5.638;2023-09-12T03:26:54;16.90;99.90
51567;DHT22;37657;53.182;5.638;2023-09-12T03:29:19;17.10;99.90
51567;DHT22;37657;53.182;5.638;2023-09-12T03:31:45;16.90;99.90
51567;DHT22;37657;53.182;5.638;2023-09-12T03:34:10;17.10;99.90
51567;DHT22;37657;53.182;5.638;2023-09-12T03:36:36;16.90;99.90
51567;DHT22;37657;53.182;5.638;2023-09-12T03:39:02;16.80;99.90
51567;DHT22;37657;53.182;5.638;2023-09-12T03:41:30;16.70;99.90
51567;DHT22;37657;53.182;5.638;2023-09-12T03:43:56;16.90;99.90
51567;DHT22;37657;53.182;5.638;2023-09-12T03:46:22;16.70;99.90
51567;DHT22;37657;53.182;5.638;2023-09-12T03:48:47;16.90;99.90
51567;DHT22;37657;53.182;5.638;2023-09-12T03:51:13;16.60;99.90
51567;DHT22;37657;53.182;5.638;2023-09-12T03:53:38;16.90;99.90
51567;DHT22;37657;53.182;5.638;2023-09-12T03:56:04;16.60;99.90
51567;DHT22;37657;53.182;5.638;2023-09-12T03:58:30;16.80;99.90
51567;DHT22;37657;53.182;5.638;2023-09-12T04:00:55;16.80;99.90
51567;DHT22;37657;53.182;5.638;2023-09-12T04:03:21;16.70;99.90
51567;DHT22;37657;53.182;5.638;2023-09-12T04:05:47;16.80;99.90
51567;DHT22;37657;53.182;5.638;2023-09-12T04:08:13;16.90;99.90
51567;DHT22;37657;53.182;5.638;2023-09-12T04:10:39;16.60;99.90
51567;DHT22;37657;53.182;5.638;2023-09-12T04:13:04;16.90;99.90
51567;DHT22;37657;53.182;5.638;2023-09-12T04:15:30;16.60;99.90
51567;DHT22;37657;53.182;5.638;2023-09-12T04:17:55;16.90;99.90
51567;DHT22;37657;53.182;5.638;2023-09-12T04:20:21;16.80;99.90
51567;DHT22;37657;53.182;5.638;2023-09-12T04:22:46;16.60;99.90
51567;DHT22;37657;53.182;5.638;2023-09-12T04:25:12;16.60;99.90
51567;DHT22;37657;53.182;5.638;2023-09-12T04:27:38;16.90;99.90
51567;DHT22;37657;53.182;5.638;2023-09-12T04:30:04;17.10;99.90
51567;DHT22;37657;53.182;5.638;2023-09-12T04:32:29;17.30;99.90
51567;DHT22;37657;53.182;5.638;2023-09-12T04:34:55;17.00;99.90
51567;DHT22;37657;53.182;5.638;2023-09-12T04:37:21;17.10;99.90
51567;DHT22;37657;53.182;5.638;2023-09-12T04:39:46;17.20;99.90
51567;DHT22;37657;53.182;5.638;2023-09-12T04:42:12;17.20;99.90
51567;DHT22;37657;53.182;5.638;2023-09-12T04:44:41;16.90;99.90
51567;DHT22;37657;53.182;5.638;2023-09-12T04:47:07;16.80;99.90
51567;DHT22;37657;53.182;5.638;2023-09-12T04:49:33;17.20;99.90
51567;DHT22;37657;53.182;5.638;2023-09-12T04:51:59;16.90;99.90
51567;DHT22;37657;53.182;5.638;2023-09-12T04:54:25;16.90;99.90
51567;DHT22;37657;53.182;5.638;2023-09-12T04:56:50;17.30;99.90
51567;DHT22;37657;53.182;5.638;2023-09-12T04:59:16;16.90;99.90
51567;DHT22;37657;53.182;5.638;2023-09-12T05:01:42;17.00;99.90
51567;DHT22;37657;53.182;5.638;2023-09-12T05:04:07;17.10;99.90
51567;DHT22;37657;53.182;5.638;2023-09-12T05:06:33;17.40;99.90
51567;DHT22;37657;53.182;5.638;2023-09-12T05:08:59;17.20;99.90
51567;DHT22;37657;53.182;5.638;2023-09-12T05:11:25;17.30;99.90
51567;DHT22;37657;53.182;5.638;2023-09-12T05:13:51;17.10;99.90
51567;DHT22;37657;53.182;5.638;2023-09-12T05:16:16;17.00;99.90
51567;DHT22;37657;53.182;5.638;2023-09-12T05:18:42;16.90;99.90
51567;DHT22;37657;53.182;5.638;2023-09-12T05:21:07;16.90;99.90
51567;DHT22;37657;53.182;5.638;2023-09-12T05:23:33;17.10;99.90
51567;DHT22;37657;53.182;5.638;2023-09-12T05:25:59;17.10;99.90
51567;DHT22;37657;53.182;5.638;2023-09-12T05:28:24;17.20;99.90
51567;DHT22;37657;53.182;5.638;2023-09-12T05:30:50;16.90;99.90
51567;DHT22;37657;53.182;5.638;2023-09-12T05:33:16;16.90;99.90
51567;DHT22;37657;53.182;5.638;2023-09-12T05:35:42;16.90;99.90
51567;DHT22;37657;53.182;5.638;2023-09-12T05:38:07;17.30;99.90
51567;DHT22;37657;53.182;5.638;2023-09-12T05:40:33;17.40;99.90
51567;DHT22;37657;53.182;5.638;2023-09-12T05:42:59;17.70;99.90
51567;DHT22;37657;53.182;5.638;2023-09-12T05:45:24;17.90;99.90
51567;DHT22;37657;53.182;5.638;2023-09-12T05:47:50;17.70;99.90
51567;DHT22;37657;53.182;5.638;2023-09-12T05:50:16;17.70;99.90
51567;DHT22;37657;53.182;5.638;2023-09-12T05:52:42;17.80;99.90
51567;DHT22;37657;53.182;5.638;2023-09-12T05:55:10;17.90;99.90
51567;DHT22;37657;53.182;5.638;2023-09-12T05:57:35;18.10;99.90
51567;DHT22;37657;53.182;5.638;2023-09-12T06:00:01;18.50;99.90
51567;DHT22;37657;53.182;5.638;2023-09-12T06:02:29;18.30;99.90
51567;DHT22;37657;53.182;5.638;2023-09-12T06:04:55;18.50;99.90
51567;DHT22;37657;53.182;5.638;2023-09-12T06:07:21;18.10;99.90
51567;DHT22;37657;53.182;5.638;2023-09-12T06:09:47;18.60;99.90
51567;DHT22;37657;53.182;5.638;2023-09-12T06:12:12;18.60;99.90
51567;DHT22;37657;53.182;5.638;2023-09-12T06:14:38;18.70;99.90
51567;DHT22;37657;53.182;5.638;2023-09-12T06:17:03;18.80;99.90
51567;DHT22;37657;53.182;5.638;2023-09-12T06:19:29;18.50;99.90
51567;DHT22;37657;53.182;5.638;2023-09-12T06:21:55;18.90;99.90
51567;DHT22;37657;53.182;5.638;2023-09-12T06:24:21;19.00;99.90
51567;DHT22;37657;53.182;5.638;2023-09-12T06:26:47;19.00;99.90
51567;DHT22;37657;53.182;5.638;2023-09-12T06:29:13;18.80;99.90
51567;DHT22;37657;53.182;5.638;2023-09-12T06:31:39;19.00;99.90
51567;DHT22;37657;53.182;5.638;2023-09-12T06:34:07;19.40;99.90
51567;DHT22;37657;53.182;5.638;2023-09-12T06:36:32;19.50;99.90
51567;DHT22;37657;53.182;5.638;2023-09-12T06:38:59;19.50;99.90
51567;DHT22;37657;53.182;5.638;2023-09-12T06:41:26;19.10;99.90
51567;DHT22;37657;53.182;5.638;2023-09-12T06:43:51;19.70;99.90
51567;DHT22;37657;53.182;5.638;2023-09-12T06:46:17;19.30;99.90
51567;DHT22;37657;53.182;5.638;2023-09-12T06:48:46;19.80;99.90
51567;DHT22;37657;53.182;5.638;2023-09-12T06:51:12;19.50;99.90
51567;DHT22;37657;53.182;5.638;2023-09-12T06:53:38;20.10;99.90
51567;DHT22;37657;53.182;5.638;2023-09-12T06:56:07;19.90;99.90
51567;DHT22;37657;53.182;5.638;2023-09-12T06:58:33;19.80;99.90
51567;DHT22;37657;53.182;5.638;2023-09-12T07:01:05;20.20;99.90
51567;DHT22;37657;53.182;5.638;2023-09-12T07:03:32;20.00;99.90
51567;DHT22;37657;53.182;5.638;2023-09-12T07:05:58;20.20;99.90
51567;DHT22;37657;53.182;5.638;2023-09-12T07:08:24;20.20;99.90
51567;DHT22;37657;53.182;5.638;2023-09-12T07:10:49;20.60;99.90
51567;DHT22;37657;53.182;5.638;2023-09-12T07:13:15;20.40;99.90
51567;DHT22;37657;53.182;5.638;2023-09-12T07:15:40;20.80;99.90
51567;DHT22;37657;53.182;5.638;2023-09-12T07:18:06;20.60;99.90
51567;DHT22;37657;53.182;5.638;2023-09-12T07:20:33;20.90;99.90
51567;DHT22;37657;53.182;5.638;2023-09-12T07:22:59;20.60;99.90
51567;DHT22;37657;53.182;5.638;2023-09-12T07:25:24;20.70;99.90
51567;DHT22;37657;53.182;5.638;2023-09-12T07:27:50;21.00;99.90
51567;DHT22;37657;53.182;5.638;2023-09-12T07:30:17;21.10;99.90
51567;DHT22;37657;53.182;5.638;2023-09-12T07:32:43;21.10;99.90
51567;DHT22;37657;53.182;5.638;2023-09-12T07:35:09;20.80;99.90
51567;DHT22;37657;53.182;5.638;2023-09-12T07:37:34;20.80;99.90
51567;DHT22;37657;53.182;5.638;2023-09-12T07:40:00;20.70;99.90
51567;DHT22;37657;53.182;5.638;2023-09-12T07:42:26;20.70;99.90
51567;DHT22;37657;53.182;5.638;2023-09-12T07:44:51;20.70;99.90
51567;DHT22;37657;53.182;5.638;2023-09-12T07:47:18;21.10;99.90
51567;DHT22;37657;53.182;5.638;2023-09-12T07:49:43;20.80;99.90
51567;DHT22;37657;53.182;5.638;2023-09-12T07:52:09;21.10;99.90
51567;DHT22;37657;53.182;5.638;2023-09-12T07:54:34;21.20;99.90
51567;DHT22;37657;53.182;5.638;2023-09-12T07:57:02;21.20;99.90
51567;DHT22;37657;53.182;5.638;2023-09-12T07:59:28;21.20;99.90
51567;DHT22;37657;53.182;5.638;2023-09-12T08:01:54;21.20;99.90
51567;DHT22;37657;53.182;5.638;2023-09-12T08:04:19;20.90;99.90
51567;DHT22;37657;53.182;5.638;2023-09-12T08:06:45;21.10;99.90
51567;DHT22;37657;53.182;5.638;2023-09-12T08:09:11;21.00;99.90
51567;DHT22;37657;53.182;5.638;2023-09-12T08:11:36;21.20;99.90
51567;DHT22;37657;53.182;5.638;2023-09-12T08:14:02;21.20;99.90
51567;DHT22;37657;53.182;5.638;2023-09-12T08:16:27;21.40;99.90
51567;DHT22;37657;53.182;5.638;2023-09-12T08:18:53;21.20;99.90
51567;DHT22;37657;53.182;5.638;2023-09-12T08:21:19;21.40;99.90
51567;DHT22;37657;53.182;5.638;2023-09-12T08:23:44;21.40;99.90
51567;DHT22;37657;53.182;5.638;2023-09-12T08:26:11;21.20;99.90
51567;DHT22;37657;53.182;5.638;2023-09-12T08:28:36;21.20;99.90
51567;DHT22;37657;53.182;5.638;2023-09-12T08:31:02;21.40;99.90
51567;DHT22;37657;53.182;5.638;2023-09-12T08:33:27;21.40;99.90
51567;DHT22;37657;53.182;5.638;2023-09-12T08:35:53;21.50;99.90
51567;DHT22;37657;53.182;5.638;2023-09-12T08:38:19;21.60;99.90
51567;DHT22;37657;53.182;5.638;2023-09-12T08:40:49;21.60;99.90
51567;DHT22;37657;53.182;5.638;2023-09-12T08:43:16;21.80;99.90
51567;DHT22;37657;53.182;5.638;2023-09-12T08:45:41;21.80;99.90
51567;DHT22;37657;53.182;5.638;2023-09-12T08:48:10;21.70;99.90
51567;DHT22;37657;53.182;5.638;2023-09-12T08:50:36;21.80;99.90
51567;DHT22;37657;53.182;5.638;2023-09-12T08:53:02;21.70;99.90
51567;DHT22;37657;53.182;5.638;2023-09-12T08:55:29;21.90;99.90
51567;DHT22;37657;53.182;5.638;2023-09-12T08:57:55;21.80;99.90
51567;DHT22;37657;53.182;5.638;2023-09-12T09:00:22;22.00;99.90
51567;DHT22;37657;53.182;5.638;2023-09-12T09:02:48;21.80;99.90
51567;DHT22;37657;53.182;5.638;2023-09-12T09:05:16;21.80;99.90
51567;DHT22;37657;53.182;5.638;2023-09-12T09:07:43;21.90;99.90
51567;DHT22;37657;53.182;5.638;2023-09-12T09:10:17;22.00;99.90
51567;DHT22;37657;53.182;5.638;2023-09-12T09:12:45;22.10;99.90
51567;DHT22;37657;53.182;5.638;2023-09-12T09:17:48;22.30;99.90
51567;DHT22;37657;53.182;5.638;2023-09-12T09:20:30;22.30;99.90
51567;DHT22;37657;53.182;5.638;2023-09-12T09:23:01;22.60;99.90
51567;DHT22;37657;53.182;5.638;2023-09-12T09:25:31;22.60;99.90
51567;DHT22;37657;53.182;5.638;2023-09-12T09:27:57;22.60;99.90
51567;DHT22;37657;53.182;5.638;2023-09-12T09:30:40;22.80;99.90
51567;DHT22;37657;53.182;5.638;2023-09-12T09:33:05;22.70;99.90
51567;DHT22;37657;53.182;5.638;2023-09-12T09:35:31;22.60;99.90
51567;DHT22;37657;53.182;5.638;2023-09-12T09:37:57;22.70;99.90
51567;DHT22;37657;53.182;5.638;2023-09-12T09:40:23;22.60;99.90
51567;DHT22;37657;53.182;5.638;2023-09-12T09:42:53;22.60;99.90
51567;DHT22;37657;53.182;5.638;2023-09-12T09:45:19;22.60;99.90
51567;DHT22;37657;53.182;5.638;2023-09-12T09:47:45;22.60;99.90
51567;DHT22;37657;53.182;5.638;2023-09-12T09:50:14;22.70;99.90
51567;DHT22;37657;53.182;5.638;2023-09-12T09:52:40;22.60;99.90
51567;DHT22;37657;53.182;5.638;2023-09-12T09:55:13;22.70;99.90
51567;DHT22;37657;53.182;5.638;2023-09-12T09:57:39;22.80;99.90
51567;DHT22;37657;53.182;5.638;2023-09-12T10:00:07;22.70;99.90
51567;DHT22;37657;53.182;5.638;2023-09-12T10:02:37;22.70;99.90
51567;DHT22;37657;53.182;5.638;2023-09-12T10:05:05;22.60;99.90
51567;DHT22;37657;53.182;5.638;2023-09-12T10:07:32;22.60;99.90
51567;DHT22;37657;53.182;5.638;2023-09-12T10:10:00;22.60;99.90
51567;DHT22;37657;53.182;5.638;2023-09-12T10:12:30;22.50;99.90
51567;DHT22;37657;53.182;5.638;2023-09-12T10:14:58;22.40;99.90
51567;DHT22;37657;53.182;5.638;2023-09-12T10:17:29;22.20;99.90
51567;DHT22;37657;53.182;5.638;2023-09-12T10:19:59;22.20;99.90
51567;DHT22;37657;53.182;5.638;2023-09-12T10:22:37;22.10;99.90
51567;DHT22;37657;53.182;5.638;2023-09-12T10:25:04;22.10;99.90
51567;DHT22;37657;53.182;5.638;2023-09-12T10:27:31;22.00;99.90
51567;DHT22;37657;53.182;5.638;2023-09-12T10:29:58;22.00;99.90
51567;DHT22;37657;53.182;5.638;2023-09-12T10:32:25;21.80;99.90
51567;DHT22;37657;53.182;5.638;2023-09-12T10:34:52;21.90;99.90
51567;DHT22;37657;53.182;5.638;2023-09-12T10:37:22;21.90;99.90
51567;DHT22;37657;53.182;5.638;2023-09-12T10:39:48;21.90;99.90
51567;DHT22;37657;53.182;5.638;2023-09-12T10:42:16;22.00;99.90
51567;DHT22;37657;53.182;5.638;2023-09-12T10:44:44;22.00;99.90
51567;DHT22;37657;53.182;5.638;2023-09-12T10:47:10;22.10;99.90
51567;DHT22;37657;53.182;5.638;2023-09-12T10:49:37;22.00;99.90
51567;DHT22;37657;53.182;5.638;2023-09-12T10:52:03;22.00;99.90
51567;DHT22;37657;53.182;5.638;2023-09-12T10:54:37;22.00;99.90
51567;DHT22;37657;53.182;5.638;2023-09-12T10:57:06;21.90;99.90
51567;DHT22;37657;53.182;5.638;2023-09-12T10:59:33;21.90;99.90
51567;DHT22;37657;53.182;5.638;2023-09-12T11:02:30;21.90;99.90
51567;DHT22;37657;53.182;5.638;2023-09-12T11:04:57;22.10;99.90
51567;DHT22;37657;53.182;5.638;2023-09-12T11:12:40;22.10;99.90
51567;DHT22;37657;53.182;5.638;2023-09-12T11:15:07;22.20;99.90
51567;DHT22;37657;53.182;5.638;2023-09-12T11:17:57;22.10;99.90
51567;DHT22;37657;53.182;5.638;2023-09-12T11:20:24;22.00;99.90
51567;DHT22;37657;53.182;5.638;2023-09-12T11:22:50;22.00;99.90
51567;DHT22;37657;53.182;5.638;2023-09-12T11:25:25;22.00;99.90
51567;DHT22;37657;53.182;5.638;2023-09-12T11:30:17;22.10;99.90
51567;DHT22;37657;53.182;5.638;2023-09-12T11:32:46;22.10;99.90
51567;DHT22;37657;53.182;5.638;2023-09-12T11:35:13;22.10;99.90
51567;DHT22;37657;53.182;5.638;2023-09-12T11:37:39;22.30;99.90
51567;DHT22;37657;53.182;5.638;2023-09-12T11:40:26;22.30;99.90
51567;DHT22;37657;53.182;5.638;2023-09-12T11:43:06;22.40;99.90
51567;DHT22;37657;53.182;5.638;2023-09-12T11:45:32;22.40;99.90
51567;DHT22;37657;53.182;5.638;2023-09-12T11:47:58;22.50;99.90
51567;DHT22;37657;53.182;5.638;2023-09-12T11:50:32;22.50;99.90
51567;DHT22;37657;53.182;5.638;2023-09-12T11:53:09;22.60;99.90
51567;DHT22;37657;53.182;5.638;2023-09-12T11:55:42;22.60;99.90
51567;DHT22;37657;53.182;5.638;2023-09-12T11:58:08;22.50;99.90
51567;DHT22;37657;53.182;5.638;2023-09-12T12:00:34;22.40;99.90
51567;DHT22;37657;53.182;5.638;2023-09-12T12:03:00;22.40;99.90
51567;DHT22;37657;53.182;5.638;2023-09-12T12:05:25;22.40;99.90
51567;DHT22;37657;53.182;5.638;2023-09-12T12:07:51;22.40;99.90
51567;DHT22;37657;53.182;5.638;2023-09-12T12:10:17;22.40;99.90
51567;DHT22;37657;53.182;5.638;2023-09-12T12:12:46;22.40;99.90
51567;DHT22;37657;53.182;5.638;2023-09-12T12:15:12;22.30;99.90
51567;DHT22;37657;53.182;5.638;2023-09-12T12:17:40;22.40;99.90
51567;DHT22;37657;53.182;5.638;2023-09-12T12:20:10;22.40;99.90
51567;DHT22;37657;53.182;5.638;2023-09-12T12:22:40;22.30;99.90
51567;DHT22;37657;53.182;5.638;2023-09-12T12:25:11;22.40;99.90
51567;DHT22;37657;53.182;5.638;2023-09-12T12:27:38;22.40;99.90
51567;DHT22;37657;53.182;5.638;2023-09-12T12:30:12;22.50;99.90
51567;DHT22;37657;53.182;5.638;2023-09-12T12:32:42;22.60;99.90
51567;DHT22;37657;53.182;5.638;2023-09-12T12:35:17;22.70;99.90
51567;DHT22;37657;53.182;5.638;2023-09-12T12:37:43;22.80;99.90
51567;DHT22;37657;53.182;5.638;2023-09-12T12:40:12;22.80;99.90
51567;DHT22;37657;53.182;5.638;2023-09-12T12:42:39;22.80;99.90
51567;DHT22;37657;53.182;5.638;2023-09-12T12:45:26;22.80;99.90
51567;DHT22;37657;53.182;5.638;2023-09-12T12:47:59;23.00;99.90
51567;DHT22;37657;53.182;5.638;2023-09-12T12:50:25;23.10;99.90
51567;DHT22;37657;53.182;5.638;2023-09-12T12:52:51;23.20;99.90
51567;DHT22;37657;53.182;5.638;2023-09-12T12:55:17;23.20;99.90
51567;DHT22;37657;53.182;5.638;2023-09-12T12:57:45;23.30;99.90
51567;DHT22;37657;53.182;5.638;2023-09-12T13:00:16;23.10;99.90
51567;DHT22;37657;53.182;5.638;2023-09-12T13:02:43;22.90;99.90
51567;DHT22;37657;53.182;5.638;2023-09-12T13:05:29;22.90;99.90
51567;DHT22;37657;53.182;5.638;2023-09-12T13:07:55;22.90;99.90
51567;DHT22;37657;53.182;5.638;2023-09-12T13:10:21;22.90;99.90
51567;DHT22;37657;53.182;5.638;2023-09-12T13:12:48;22.80;99.90
51567;DHT22;37657;53.182;5.638;2023-09-12T13:15:14;22.70;99.90
51567;DHT22;37657;53.182;5.638;2023-09-12T13:17:41;22.60;99.90
51567;DHT22;37657;53.182;5.638;2023-09-12T13:20:07;22.60;99.90
51567;DHT22;37657;53.182;5.638;2023-09-12T13:22:36;22.50;99.90
51567;DHT22;37657;53.182;5.638;2023-09-12T13:25:03;22.50;99.90
51567;DHT22;37657;53.182;5.638;2023-09-12T13:27:29;22.50;99.90
51567;DHT22;37657;53.182;5.638;2023-09-12T13:29:54;22.50;99.90
51567;DHT22;37657;53.182;5.638;2023-09-12T13:32:20;22.50;99.90
51567;DHT22;37657;53.182;5.638;2023-09-12T13:34:46;22.50;99.90
51567;DHT22;37657;53.182;5.638;2023-09-12T13:37:11;22.60;99.90
51567;DHT22;37657;53.182;5.638;2023-09-12T13:39:37;22.60;99.90
51567;DHT22;37657;53.182;5.638;2023-09-12T13:42:03;22.70;99.90
51567;DHT22;37657;53.182;5.638;2023-09-12T13:44:31;22.60;99.90
51567;DHT22;37657;53.182;5.638;2023-09-12T13:46:56;22.60;99.90
51567;DHT22;37657;53.182;5.638;2023-09-12T13:49:22;22.60;99.90
51567;DHT22;37657;53.182;5.638;2023-09-12T13:51:47;22.50;99.90
51567;DHT22;37657;53.182;5.638;2023-09-12T13:54:13;22.50;99.90
51567;DHT22;37657;53.182;5.638;2023-09-12T13:56:44;22.50;99.90
51567;DHT22;37657;53.182;5.638;2023-09-12T13:59:10;22.50;99.90
51567;DHT22;37657;53.182;5.638;2023-09-12T14:01:35;22.50;99.90
51567;DHT22;37657;53.182;5.638;2023-09-12T14:04:02;22.60;99.90
51567;DHT22;37657;53.182;5.638;2023-09-12T14:06:28;22.60;99.90
51567;DHT22;37657;53.182;5.638;2023-09-12T14:08:53;22.60;99.90
51567;DHT22;37657;53.182;5.638;2023-09-12T14:11:19;22.70;99.90
51567;DHT22;37657;53.182;5.638;2023-09-12T14:13:45;22.70;99.90
51567;DHT22;37657;53.182;5.638;2023-09-12T14:16:10;22.70;99.90
51567;DHT22;37657;53.182;5.638;2023-09-12T14:18:36;22.70;99.90
51567;DHT22;37657;53.182;5.638;2023-09-12T14:21:02;22.80;99.90
51567;DHT22;37657;53.182;5.638;2023-09-12T14:23:28;22.70;99.90
51567;DHT22;37657;53.182;5.638;2023-09-12T14:25:54;22.60;99.90
51567;DHT22;37657;53.182;5.638;2023-09-12T14:28:19;22.50;99.90
51567;DHT22;37657;53.182;5.638;2023-09-12T14:30:45;22.50;99.90
51567;DHT22;37657;53.182;5.638;2023-09-12T14:33:11;22.40;99.90
51567;DHT22;37657;53.182;5.638;2023-09-12T14:35:37;22.50;99.90
51567;DHT22;37657;53.182;5.638;2023-09-12T14:38:03;22.30;99.90
51567;DHT22;37657;53.182;5.638;2023-09-12T14:40:29;22.30;99.90
51567;DHT22;37657;53.182;5.638;2023-09-12T14:42:55;22.30;99.90
51567;DHT22;37657;53.182;5.638;2023-09-12T14:45:21;22.20;99.90
51567;DHT22;37657;53.182;5.638;2023-09-12T14:47:47;22.10;99.90
51567;DHT22;37657;53.182;5.638;2023-09-12T14:50:12;22.00;99.90
51567;DHT22;37657;53.182;5.638;2023-09-12T14:52:38;22.00;99.90
51567;DHT22;37657;53.182;5.638;2023-09-12T14:55:05;22.00;99.90
51567;DHT22;37657;53.182;5.638;2023-09-12T14:57:32;21.90;99.90
51567;DHT22;37657;53.182;5.638;2023-09-12T14:59:58;21.70;99.90
51567;DHT22;37657;53.182;5.638;2023-09-12T15:02:27;21.70;99.90
51567;DHT22;37657;53.182;5.638;2023-09-12T15:04:59;21.60;99.90
51567;DHT22;37657;53.182;5.638;2023-09-12T15:07:25;21.60;99.90
51567;DHT22;37657;53.182;5.638;2023-09-12T15:09:51;21.60;99.90
51567;DHT22;37657;53.182;5.638;2023-09-12T15:12:16;21.50;99.90
51567;DHT22;37657;53.182;5.638;2023-09-12T15:14:42;21.40;99.90
51567;DHT22;37657;53.182;5.638;2023-09-12T15:17:07;21.40;99.90
51567;DHT22;37657;53.182;5.638;2023-09-12T15:19:33;21.40;99.90
51567;DHT22;37657;53.182;5.638;2023-09-12T15:21:58;21.30;99.90
51567;DHT22;37657;53.182;5.638;2023-09-12T15:24:24;21.30;99.90
51567;DHT22;37657;53.182;5.638;2023-09-12T15:26:49;21.30;99.90
51567;DHT22;37657;53.182;5.638;2023-09-12T15:29:15;21.30;99.90
51567;DHT22;37657;53.182;5.638;2023-09-12T15:31:41;21.30;99.90
51567;DHT22;37657;53.182;5.638;2023-09-12T15:34:06;21.30;99.90
51567;DHT22;37657;53.182;5.638;2023-09-12T15:36:39;21.40;99.90
51567;DHT22;37657;53.182;5.638;2023-09-12T15:39:06;21.30;99.90
51567;DHT22;37657;53.182;5.638;2023-09-12T15:41:31;21.30;99.90
51567;DHT22;37657;53.182;5.638;2023-09-12T15:43:57;21.20;99.90